Time;durP1;ratioP1;P1;durP2;ratioP2;P2;SDS_P1;SDS_P2;PMS_P1;PMS_P2;Temp;Humidity;BMP_temperature;BMP_pressure;BME280_temperature;BME280_humidity;BME280_pressure;Samples;Min_cycle;Max_cycle;Signal;HPM_P1;HPM_P2
2023/04/01 00:00:57;;;;;;;4.03;1.63;;;9.70;60.60;;;;;;4720825;29;115134;-85
2023/04/01 00:03:26;;;;;;;4.32;1.50;;;9.70;60.60;;;;;;4727989;29;114910;-85
2023/04/01 00:05:55;;;;;;;3.95;1.50;;;9.70;60.70;;;;;;4708569;29;118548;-85
2023/04/01 00:08:23;;;;;;;3.25;1.50;;;9.70;60.70;;;;;;4711809;29;114672;-85
2023/04/01 00:10:50;;;;;;;4.18;1.63;;;9.70;60.50;;;;;;4731356;29;114949;-84
2023/04/01 00:13:18;;;;;;;3.17;1.33;;;9.70;60.50;;;;;;4731170;29;114612;-84
2023/04/01 00:15:45;;;;;;;3.03;1.50;;;9.70;60.60;;;;;;4704758;29;116855;-84
2023/04/01 00:18:13;;;;;;;3.85;1.48;;;9.70;60.50;;;;;;4738084;29;114716;-83
2023/04/01 00:20:48;;;;;;;2.83;1.52;;;9.70;60.50;;;;;;4711646;29;115161;-83
2023/04/01 00:23:15;;;;;;;4.18;1.40;;;9.80;60.60;;;;;;4711697;29;114762;-84
2023/04/01 00:25:43;;;;;;;3.63;1.50;;;9.80;60.50;;;;;;4710707;29;115253;-85
2023/04/01 00:28:10;;;;;;;4.60;1.65;;;9.80;60.50;;;;;;4725503;29;115245;-84
2023/04/01 00:30:38;;;;;;;4.78;1.83;;;9.80;60.50;;;;;;4711199;29;116765;-84
2023/04/01 00:33:06;;;;;;;4.80;1.65;;;9.80;60.50;;;;;;4709416;29;114614;-84
2023/04/01 00:35:33;;;;;;;4.70;1.42;;;9.70;60.60;;;;;;4739849;29;115160;-83
2023/04/01 00:38:00;;;;;;;4.97;1.65;;;9.70;60.70;;;;;;4741255;29;115324;-83
2023/04/01 00:40:34;;;;;;;4.00;1.60;;;9.70;60.70;;;;;;4710078;29;114568;-83
2023/04/01 00:43:04;;;;;;;3.53;1.40;;;9.80;60.70;;;;;;4726005;29;114622;-83
2023/04/01 00:45:38;;;;;;;3.47;1.60;;;9.80;60.60;;;;;;4740919;29;115205;-85
2023/04/01 00:48:09;;;;;;;;;;;9.80;60.80;;;;;;4695855;29;116207;-85
2023/04/01 00:50:36;;;;;;;4.38;1.80;;;9.70;60.30;;;;;;4726014;29;115678;-85
2023/04/01 00:53:03;;;;;;;3.53;1.73;;;9.70;60.90;;;;;;4696215;29;114790;-84
2023/04/01 00:55:34;;;;;;;4.60;1.73;;;9.70;61.00;;;;;;4709804;29;115625;-83
2023/04/01 00:58:04;;;;;;;4.20;1.50;;;9.70;61.10;;;;;;4710392;29;118795;-84
2023/04/01 01:00:31;;;;;;;4.88;1.70;;;9.70;61.10;;;;;;4725869;29;114786;-84
2023/04/01 01:02:58;;;;;;;4.55;1.80;;;9.70;61.10;;;;;;4710560;29;114748;-84
2023/04/01 01:05:39;;;;;;;3.72;1.70;;;9.70;61.10;;;;;;4739954;29;117694;-84
2023/04/01 01:08:31;;;;;;;3.70;1.50;;;9.70;61.30;;;;;;4711061;29;114874;-83
2023/04/01 01:10:58;;;;;;;4.82;1.60;;;9.70;61.20;;;;;;4710669;29;114717;-84
2023/04/01 01:13:43;;;;;;;4.85;2.42;;;9.70;61.10;;;;;;4710819;29;114586;-84
2023/04/01 01:16:25;;;;;;;4.30;1.83;;;9.80;61.20;;;;;;4696000;29;115746;-85
2023/04/01 01:19:27;;;;;;;3.78;1.80;;;9.70;61.20;;;;;;4722266;29;116662;-83
2023/04/01 01:22:30;;;;;;;5.45;2.00;;;9.80;61.30;;;;;;4741335;29;114653;-84
2023/04/01 01:25:29;;;;;;;3.88;1.50;;;9.80;61.10;;;;;;4710871;29;114612;-84
2023/04/01 01:28:44;;;;;;;5.53;1.95;;;9.70;61.10;;;;;;4724011;29;118502;-84
2023/04/01 01:31:36;;;;;;;4.25;1.70;;;9.80;61.20;;;;;;4708845;29;114895;-84
2023/04/01 01:34:24;;;;;;;6.25;2.05;;;9.70;61.30;;;;;;4707239;29;114648;-84
2023/04/01 01:36:59;;;;;;;4.10;1.60;;;9.70;61.40;;;;;;4741261;29;114688;-84
2023/04/01 01:39:29;;;;;;;5.05;1.98;;;9.70;61.50;;;;;;4695100;29;115285;-85
2023/04/01 01:41:57;;;;;;;4.10;1.70;;;9.70;61.30;;;;;;4705316;29;115831;-84
2023/04/01 01:44:24;;;;;;;3.60;1.58;;;9.70;61.30;;;;;;4707690;29;115121;-84
2023/04/01 01:46:52;;;;;;;3.70;1.48;;;9.70;61.30;;;;;;4720617;29;114692;-84
2023/04/01 01:49:19;;;;;;;4.50;1.50;;;9.70;61.30;;;;;;4720820;29;117804;-84
2023/04/01 01:51:48;;;;;;;4.90;1.60;;;9.70;61.30;;;;;;4706834;29;115658;-83
2023/04/01 01:54:17;;;;;;;4.50;1.73;;;9.70;61.10;;;;;;4721946;29;114846;-83
2023/04/01 01:56:49;;;;;;;4.60;1.73;;;9.80;61.10;;;;;;4708133;29;114876;-82
2023/04/01 01:59:17;;;;;;;3.80;1.60;;;9.80;61.30;;;;;;4694365;29;115422;-83
2023/04/01 02:01:49;;;;;;;3.45;1.40;;;9.70;61.20;;;;;;4707501;29;116563;-83
2023/04/01 02:04:17;;;;;;;5.15;1.67;;;9.70;61.30;;;;;;4707282;29;116459;-84
2023/04/01 02:06:57;;;;;;;4.22;1.70;;;9.70;61.30;;;;;;4721936;29;114591;-83
2023/04/01 02:09:25;;;;;;;3.35;1.58;;;9.70;61.30;;;;;;4689980;29;117888;-84
2023/04/01 02:11:59;;;;;;;4.18;1.52;;;9.70;61.30;;;;;;4720626;29;115404;-83
2023/04/01 02:14:39;;;;;;;4.18;1.42;;;9.70;61.40;;;;;;4693365;29;114583;-83
2023/04/01 02:17:16;;;;;;;6.47;1.88;;;9.70;61.30;;;;;;4739015;29;114468;-83
2023/04/01 02:19:53;;;;;;;5.95;1.70;;;9.70;61.30;;;;;;4694003;29;115340;-83
2023/04/01 02:22:29;;;;;;;6.85;2.83;;;9.80;61.30;;;;;;4705991;29;114910;-84
2023/04/01 02:25:06;;;;;;;4.22;1.73;;;9.70;61.20;;;;;;4705583;29;114906;-84
2023/04/01 02:27:34;;;;;;;3.92;1.58;;;9.80;61.30;;;;;;4706622;29;114656;-84
2023/04/01 02:30:01;;;;;;;4.53;1.70;;;9.70;61.20;;;;;;4705888;29;115485;-84
2023/04/01 02:32:33;;;;;;;5.13;1.80;;;9.80;61.30;;;;;;4691992;29;116249;-83
2023/04/01 02:35:07;;;;;;;6.22;1.85;;;9.80;61.10;;;;;;4692933;29;114574;-84
2023/04/01 02:37:36;;;;;;;4.47;1.80;;;9.80;61.20;;;;;;4707339;29;114584;-82
2023/04/01 02:40:07;;;;;;;4.15;1.80;;;9.80;61.20;;;;;;4706784;29;114973;-83
2023/04/01 02:42:35;;;;;;;4.18;1.67;;;9.80;61.10;;;;;;4690653;29;114707;-83
2023/04/01 02:45:03;;;;;;;6.38;1.80;;;9.80;61.10;;;;;;4707484;29;114696;-84
2023/04/01 02:47:30;;;;;;;4.43;1.80;;;9.90;61.10;;;;;;4719650;29;114673;-83
2023/04/01 02:49:58;;;;;;;4.55;1.65;;;9.90;61.10;;;;;;4705612;29;116442;-83
2023/04/01 02:52:29;;;;;;;3.97;1.65;;;9.90;61.00;;;;;;4706396;29;114558;-84
2023/04/01 02:54:59;;;;;;;4.67;1.50;;;9.90;61.00;;;;;;4720565;29;114572;-83
2023/04/01 02:57:31;;;;;;;4.43;1.83;;;9.80;60.90;;;;;;4722156;29;115051;-82
2023/04/01 02:59:59;;;;;;;4.93;2.50;;;9.80;61.10;;;;;;4722059;29;115430;-82
2023/04/01 03:02:28;;;;;;;5.55;1.75;;;9.90;61.00;;;;;;4706131;29;114781;-84
2023/04/01 03:04:55;;;;;;;5.80;1.90;;;9.80;61.20;;;;;;4722739;29;114642;-84
2023/04/01 03:07:23;;;;;;;4.47;1.80;;;9.80;61.10;;;;;;4722046;29;114852;-83
2023/04/01 03:09:51;;;;;;;4.30;1.88;;;9.90;61.10;;;;;;4706033;29;115286;-83
2023/04/01 03:12:19;;;;;;;4.53;1.60;;;9.80;61.10;;;;;;4720376;29;114815;-83
2023/04/01 03:14:50;;;;;;;4.90;1.73;;;9.80;61.00;;;;;;4706877;29;114592;-83
2023/04/01 03:17:18;;;;;;;5.65;1.75;;;9.80;61.10;;;;;;4721615;29;114703;-83
2023/04/01 03:19:45;;;;;;;4.22;1.60;;;9.80;61.10;;;;;;4705755;29;118244;-83
2023/04/01 03:22:13;;;;;;;4.88;1.50;;;9.80;61.10;;;;;;4706171;29;114690;-85
2023/04/01 03:24:40;;;;;;;4.75;1.67;;;9.80;61.10;;;;;;4706726;29;114557;-83
2023/04/01 03:27:08;;;;;;;3.88;1.90;;;9.80;61.10;;;;;;4722772;29;114614;-84
2023/04/01 03:29:35;;;;;;;4.88;1.50;;;9.80;61.10;;;;;;4720293;29;115465;-86
2023/04/01 03:32:03;;;;;;;5.55;1.90;;;9.80;61.20;;;;;;4720020;29;114717;-82
2023/04/01 03:34:31;;;;;;;4.05;1.60;;;9.80;61.20;;;;;;4722177;29;114503;-83
2023/04/01 03:36:59;;;;;;;5.03;1.88;;;9.80;61.20;;;;;;4721017;29;114714;-82
2023/04/01 03:39:26;;;;;;;3.20;1.60;;;9.80;61.20;;;;;;4704578;29;118870;-82
2023/04/01 03:41:55;;;;;;;4.70;1.95;;;9.80;61.10;;;;;;4719197;29;115147;-82
2023/04/01 03:44:23;;;;;;;6.30;1.83;;;9.80;61.20;;;;;;4708148;29;114566;-82
2023/04/01 03:46:55;;;;;;;6.20;2.05;;;9.90;61.00;;;;;;4727526;29;114514;-83
2023/04/01 03:49:22;;;;;;;5.10;1.70;;;9.80;61.20;;;;;;4722020;29;114568;-84
2023/04/01 03:51:50;;;;;;;6.95;1.90;;;9.80;61.20;;;;;;4719842;29;114779;-83
2023/04/01 03:54:17;;;;;;;4.07;1.90;;;9.80;61.20;;;;;;4706295;29;114409;-82
2023/04/01 03:56:46;;;;;;;4.15;1.77;;;9.80;61.20;;;;;;4707140;29;114589;-83
2023/04/01 03:59:14;;;;;;;4.43;1.85;;;9.80;61.10;;;;;;4705561;29;115253;-82
2023/04/01 04:01:46;;;;;;;4.13;1.90;;;9.80;61.20;;;;;;4705326;29;115419;-86
2023/04/01 04:04:14;;;;;;;4.53;1.92;;;9.80;61.20;;;;;;4706130;29;114722;-85
2023/04/01 04:06:44;;;;;;;4.32;1.50;;;9.80;61.10;;;;;;4721036;29;114771;-85
2023/04/01 04:09:13;;;;;;;6.93;2.10;;;9.80;61.10;;;;;;4719899;29;115423;-84
2023/04/01 04:11:40;;;;;;;4.78;1.70;;;9.70;61.10;;;;;;4704163;29;115437;-85
2023/04/01 04:14:08;;;;;;;4.90;1.75;;;9.80;61.20;;;;;;4721209;29;114530;-85
2023/04/01 04:16:36;;;;;;;6.15;2.22;;;9.70;61.20;;;;;;4720974;29;114408;-84
2023/04/01 04:19:05;;;;;;;7.25;2.00;;;9.80;61.30;;;;;;4705468;29;116611;-84
2023/04/01 04:21:33;;;;;;;6.40;1.73;;;9.70;61.30;;;;;;4738830;29;116745;-85
2023/04/01 04:24:02;;;;;;;5.70;1.60;;;9.70;61.30;;;;;;4717823;29;114181;-84
2023/04/01 04:26:47;;;;;;;5.93;2.10;;;9.80;61.30;;;;;;4704909;29;114941;-86
2023/04/01 04:29:14;;;;;;;3.95;1.60;;;9.80;61.30;;;;;;4725860;29;114686;-84
2023/04/01 04:31:43;;;;;;;4.60;2.13;;;9.80;61.30;;;;;;4710773;29;116586;-84
2023/04/01 04:34:14;;;;;;;5.15;1.90;;;9.80;61.30;;;;;;4710664;29;114262;-84
2023/04/01 04:36:42;;;;;;;4.68;1.85;;;9.80;61.20;;;;;;4694665;29;114633;-85
2023/04/01 04:39:10;;;;;;;5.30;2.35;;;9.80;61.10;;;;;;4723224;29;115262;-85
2023/04/01 04:41:39;;;;;;;4.25;1.80;;;9.80;61.10;;;;;;4722404;29;117433;-85
2023/04/01 04:44:07;;;;;;;4.72;2.17;;;9.80;61.10;;;;;;4723162;29;114588;-83
2023/04/01 04:46:36;;;;;;;4.70;1.63;;;9.80;61.10;;;;;;4722689;29;114945;-84
2023/04/01 04:49:15;;;;;;;5.22;1.95;;;9.80;61.10;;;;;;4721798;29;116162;-84
2023/04/01 04:51:42;;;;;;;6.03;2.03;;;9.80;61.10;;;;;;4706574;29;117275;-84
2023/04/01 04:54:10;;;;;;;4.07;1.73;;;9.80;61.00;;;;;;4721833;29;114678;-84
2023/04/01 04:56:53;;;;;;;4.32;1.92;;;9.80;61.10;;;;;;4736959;29;114833;-84
2023/04/01 04:59:22;;;;;;;5.50;2.05;;;9.80;61.00;;;;;;4706762;29;116914;-84
2023/04/01 05:01:58;;;;;;;4.45;1.83;;;9.80;61.00;;;;;;4721784;29;115010;-85
2023/04/01 05:04:25;;;;;;;7.80;2.10;;;9.80;61.10;;;;;;4740016;29;114844;-86
2023/04/01 05:06:53;;;;;;;3.55;1.80;;;9.80;61.00;;;;;;4723841;29;114844;-86
2023/04/01 05:09:21;;;;;;;5.35;1.95;;;9.80;61.00;;;;;;4722429;29;118619;-86
2023/04/01 05:11:49;;;;;;;4.80;1.90;;;9.80;60.90;;;;;;4716767;29;118514;-85
2023/04/01 05:14:17;;;;;;;6.93;2.10;;;9.80;60.90;;;;;;4723217;29;114536;-84
2023/04/01 05:16:54;;;;;;;5.10;2.08;;;9.80;60.80;;;;;;4696154;29;114556;-85
2023/04/01 05:19:22;;;;;;;5.20;1.90;;;9.80;60.90;;;;;;4707570;29;114467;-83
2023/04/01 05:21:50;;;;;;;5.05;1.90;;;9.80;60.90;;;;;;4692955;29;115027;-84
2023/04/01 05:24:17;;;;;;;4.40;1.77;;;9.70;60.90;;;;;;4708562;29;114647;-85
2023/04/01 05:26:44;;;;;;;5.13;1.95;;;9.70;60.90;;;;;;4708194;29;114431;-84
2023/04/01 05:29:12;;;;;;;4.32;1.90;;;9.70;61.00;;;;;;4692622;29;116617;-84
2023/04/01 05:31:42;;;;;;;5.18;1.73;;;9.70;60.90;;;;;;4681210;29;115996;-84
2023/04/01 05:34:11;;;;;;;5.78;1.70;;;9.70;61.20;;;;;;4683096;29;114527;-85
2023/04/01 05:36:41;;;;;;;6.20;2.33;;;9.80;61.50;;;;;;4708686;29;114920;-84
2023/04/01 05:39:09;;;;;;;3.60;1.90;;;10.00;61.70;;;;;;4707729;29;115878;-84
2023/04/01 05:41:37;;;;;;;4.18;1.63;;;10.20;61.10;;;;;;4691485;29;115973;-84
2023/04/01 05:44:05;;;;;;;3.50;1.75;;;10.50;61.00;;;;;;4690990;29;118056;-83
2023/04/01 05:46:41;;;;;;;4.50;1.65;;;10.60;60.50;;;;;;4708864;29;114739;-84
2023/04/01 05:49:23;;;;;;;6.07;2.22;;;10.60;60.30;;;;;;4695607;29;119691;-83
2023/04/01 05:51:53;;;;;;;6.25;2.40;;;10.60;59.90;;;;;;4714560;29;114951;-84
2023/04/01 05:54:22;;;;;;;4.68;1.60;;;10.60;59.70;;;;;;4706854;29;114670;-84
2023/04/01 05:56:49;;;;;;;4.63;1.75;;;10.60;59.70;;;;;;4721407;29;114668;-84
2023/04/01 05:59:18;;;;;;;4.90;2.03;;;10.50;59.50;;;;;;4696096;29;115467;-84
2023/04/01 06:01:53;;;;;;;4.75;1.73;;;10.50;59.70;;;;;;4711211;29;117530;-84
2023/04/01 06:04:21;;;;;;;4.45;2.00;;;10.50;59.70;;;;;;4731286;29;114642;-84
2023/04/01 06:06:51;;;;;;;4.78;1.63;;;10.50;59.50;;;;;;4718783;29;114468;-84
2023/04/01 06:09:30;;;;;;;5.18;1.70;;;10.50;59.40;;;;;;4714864;29;115214;-84
2023/04/01 06:12:07;;;;;;;2.88;1.42;;;10.50;59.50;;;;;;4719205;29;114806;-85
2023/04/01 06:15:13;;;;;;;4.18;1.67;;;10.60;59.40;;;;;;4719162;29;114582;-85
2023/04/01 06:18:02;;;;;;;4.10;1.45;;;10.50;59.50;;;;;;4676096;29;114794;-84
2023/04/01 06:20:43;;;;;;;5.13;1.50;;;10.50;59.40;;;;;;4716829;29;115527;-85
2023/04/01 06:23:37;;;;;;;4.05;1.50;;;10.60;59.50;;;;;;4705662;29;114809;-85
2023/04/01 06:26:24;;;;;;;4.77;1.70;;;10.70;59.30;;;;;;4721420;29;115475;-84
2023/04/01 06:29:37;;;;;;;5.38;1.70;;;10.70;59.30;;;;;;4710296;29;114727;-84
2023/04/01 06:32:44;;;;;;;4.45;1.58;;;10.70;59.30;;;;;;4724803;29;114817;-83
2023/04/01 06:35:53;;;;;;;4.07;1.70;;;10.70;59.40;;;;;;4721134;29;115152;-84
2023/04/01 06:38:26;;;;;;;4.65;1.60;;;10.70;59.20;;;;;;4705935;29;114736;-83
2023/04/01 06:41:05;;;;;;;3.92;1.38;;;10.70;59.30;;;;;;4723606;29;114981;-83
2023/04/01 06:43:56;;;;;;;4.10;1.50;;;10.80;59.20;;;;;;4724526;29;115617;-84
2023/04/01 06:46:50;;;;;;;5.40;2.35;;;10.80;59.00;;;;;;4739217;29;114641;-83
2023/04/01 06:50:07;;;;;;;4.18;1.80;;;10.70;59.20;;;;;;4727161;29;114626;-83
2023/04/01 06:53:25;;;;;;;4.40;1.50;;;10.80;59.10;;;;;;4734990;29;114873;-85
2023/04/01 06:56:31;;;;;;;4.80;1.67;;;10.90;59.00;;;;;;4708971;29;118370;-85
2023/04/01 06:59:50;;;;;;;4.97;2.10;;;10.90;59.00;;;;;;4613664;30;115404;-84
2023/04/01 07:02:41;;;;;;;3.20;1.40;;;10.90;58.80;;;;;;4627108;30;115065;-85
2023/04/01 07:05:11;;;;;;;3.88;1.70;;;11.00;58.60;;;;;;4631625;30;114694;-84
2023/04/01 07:07:48;;;;;;;5.25;1.70;;;11.00;58.60;;;;;;4624470;30;115521;-83
2023/04/01 07:10:46;;;;;;;4.55;1.70;;;10.90;58.60;;;;;;4614713;30;117318;-85
2023/04/01 07:13:52;;;;;;;4.10;1.95;;;11.10;58.70;;;;;;4659699;30;114697;-85
2023/04/01 07:16:35;;;;;;;3.88;1.73;;;11.00;58.80;;;;;;4616639;30;117599;-86
2023/04/01 07:19:37;;;;;;;4.15;1.90;;;11.10;58.70;;;;;;4633974;30;118339;-84
2023/04/01 07:22:27;;;;;;;5.47;1.73;;;11.20;58.40;;;;;;4630793;30;117875;-85
2023/04/01 07:25:17;;;;;;;3.80;1.48;;;11.20;58.40;;;;;;4648071;30;116804;-84
2023/04/01 07:28:12;;;;;;;6.57;1.58;;;11.20;58.50;;;;;;4632939;30;116345;-86
2023/04/01 07:31:19;;;;;;;4.70;2.05;;;11.10;58.40;;;;;;4637267;30;116863;-85
2023/04/01 07:34:20;;;;;;;10.55;1.80;;;11.20;58.40;;;;;;4628271;30;115028;-85
2023/04/01 07:37:14;;;;;;;3.53;1.52;;;11.20;58.50;;;;;;4698106;29;114713;-84
2023/04/01 07:40:12;;;;;;;3.45;1.40;;;11.20;58.70;;;;;;4674782;29;115012;-85
2023/04/01 07:43:28;;;;;;;2.70;1.50;;;11.20;58.70;;;;;;4687735;29;117604;-83
2023/04/01 07:46:20;;;;;;;3.28;1.30;;;11.20;58.70;;;;;;4706808;29;114827;-84
2023/04/01 07:49:14;;;;;;;2.42;1.30;;;11.30;58.70;;;;;;4722730;29;114919;-85
2023/04/01 07:52:05;;;;;;;4.13;1.50;;;11.30;58.40;;;;;;4707213;29;114740;-85
2023/04/01 07:55:11;;;;;;;3.33;1.40;;;11.30;58.20;;;;;;4705800;29;118328;-86
2023/04/01 07:57:55;;;;;;;2.85;1.42;;;11.30;58.40;;;;;;4675931;29;114818;-84
2023/04/01 08:00:42;;;;;;;6.20;2.33;;;11.30;58.30;;;;;;4700347;29;114754;-85
2023/04/01 08:03:31;;;;;;;3.95;1.60;;;11.20;58.30;;;;;;4709897;29;115023;-85
2023/04/01 08:06:26;;;;;;;4.20;1.60;;;11.20;58.60;;;;;;4721288;29;115254;-85
2023/04/01 08:09:18;;;;;;;5.15;1.58;;;11.20;58.80;;;;;;4708061;29;119359;-84
2023/04/01 08:12:36;;;;;;;4.40;1.50;;;11.10;58.90;;;;;;4738570;29;114571;-84
2023/04/01 08:15:28;;;;;;;4.50;1.60;;;11.10;59.10;;;;;;4713465;29;119039;-83
2023/04/01 08:19:20;;;;;;;5.47;2.30;;;11.10;59.20;;;;;;4720063;29;118466;-84
2023/04/01 08:21:52;;;;;;;4.70;1.73;;;11.20;59.20;;;;;;4695420;29;117888;-84
2023/04/01 08:24:46;;;;;;;6.18;1.90;;;11.20;59.30;;;;;;4693694;29;114921;-85
2023/04/01 08:27:49;;;;;;;3.45;1.75;;;11.20;59.40;;;;;;4694225;29;115137;-84
2023/04/01 08:30:23;;;;;;;4.43;1.93;;;11.30;59.50;;;;;;4707130;29;117236;-86
2023/04/01 08:32:58;;;;;;;4.30;1.67;;;11.30;59.70;;;;;;4707382;29;114684;-86
2023/04/01 08:35:59;;;;;;;5.70;1.55;;;11.40;59.80;;;;;;4693529;29;115057;-85
2023/04/01 08:38:46;;;;;;;4.28;1.60;;;11.60;59.50;;;;;;4709666;29;114849;-82
2023/04/01 08:42:02;;;;;;;3.45;1.70;;;11.60;59.40;;;;;;4708237;29;114935;-83
2023/04/01 08:45:29;;;;;;;4.57;1.70;;;11.70;59.30;;;;;;4707448;29;118535;-84
2023/04/01 08:48:28;;;;;;;2.85;1.30;;;11.70;59.40;;;;;;4701722;29;114618;-83
2023/04/01 08:51:34;;;;;;;6.47;2.53;;;11.70;59.40;;;;;;4715795;29;118725;-84
2023/04/01 08:54:09;;;;;;;;;;;11.80;59.40;;;;;;4728916;29;115659;-82
2023/04/01 08:57:14;;;;;;;3.57;1.87;;;11.80;59.20;;;;;;4696784;29;114970;-84
2023/04/01 09:00:31;;;;;;;5.57;1.75;;;11.90;59.30;;;;;;4729767;29;118222;-84
2023/04/01 09:03:33;;;;;;;3.22;1.65;;;11.90;59.30;;;;;;4699469;29;114677;-83
2023/04/01 09:06:24;;;;;;;6.55;2.70;;;12.00;59.40;;;;;;4713767;29;117569;-83
2023/04/01 09:09:38;;;;;;;5.22;2.00;;;12.00;59.10;;;;;;4695819;29;114978;-83
2023/04/01 09:12:51;;;;;;;3.58;1.95;;;12.00;59.40;;;;;;4717888;29;116698;-82
2023/04/01 09:15:24;;;;;;;3.97;2.13;;;12.00;59.60;;;;;;4699344;29;119120;-84
2023/04/01 09:18:27;;;;;;;5.65;1.90;;;12.00;60.00;;;;;;4710468;29;115765;-85
2023/04/01 09:21:36;;;;;;;4.95;2.25;;;12.10;60.10;;;;;;4708283;29;114960;-83
2023/04/01 09:24:25;;;;;;;4.45;2.08;;;12.10;60.50;;;;;;4707816;29;114966;-83
2023/04/01 09:27:00;;;;;;;3.53;2.00;;;12.10;60.70;;;;;;4706625;29;114664;-86
2023/04/01 09:29:47;;;;;;;4.80;2.00;;;12.20;60.60;;;;;;4705403;29;117395;-84
2023/04/01 09:32:36;;;;;;;5.53;2.60;;;12.20;60.70;;;;;;4721235;29;114747;-85
2023/04/01 09:35:36;;;;;;;5.13;2.60;;;12.20;60.70;;;;;;4721678;29;114760;-84
2023/04/01 09:38:30;;;;;;;5.95;2.45;;;12.20;61.00;;;;;;4721982;29;114548;-83
2023/04/01 09:41:02;;;;;;;4.57;2.20;;;12.20;61.30;;;;;;4708168;29;118899;-85
2023/04/01 09:44:26;;;;;;;4.53;2.20;;;12.30;61.30;;;;;;4715104;29;114694;-84
2023/04/01 09:47:14;;;;;;;5.28;2.80;;;12.50;61.30;;;;;;4695971;29;115081;-85
2023/04/01 09:50:36;;;;;;;5.43;2.70;;;12.50;61.80;;;;;;4724927;29;114949;-84
2023/04/01 09:53:30;;;;;;;3.20;1.80;;;12.60;61.10;;;;;;4697225;29;115731;-84
2023/04/01 09:56:54;;;;;;;3.00;1.83;;;12.50;60.20;;;;;;4712257;29;114933;-82
2023/04/01 10:00:03;;;;;;;4.43;2.17;;;12.50;59.90;;;;;;4724401;29;114722;-83
2023/04/01 10:03:00;;;;;;;4.00;2.08;;;12.50;60.30;;;;;;4713981;29;114926;-82
2023/04/01 10:06:05;;;;;;;4.00;2.30;;;12.50;60.30;;;;;;4708279;29;118276;-83
2023/04/01 10:09:10;;;;;;;4.53;2.47;;;12.50;60.40;;;;;;4706435;29;114856;-83
2023/04/01 10:12:08;;;;;;;4.78;2.17;;;12.40;60.70;;;;;;4724747;29;117054;-83
2023/04/01 10:14:45;;;;;;;4.53;2.47;;;12.40;60.80;;;;;;4712890;29;114644;-83
2023/04/01 10:17:38;;;;;;;2.80;2.00;;;12.40;61.40;;;;;;4740649;29;115001;-84
2023/04/01 10:20:26;;;;;;;3.25;2.05;;;12.40;60.80;;;;;;4723906;29;114769;-83
2023/04/01 10:23:15;;;;;;;4.30;1.85;;;12.40;60.90;;;;;;4724367;29;114601;-83
2023/04/01 10:26:14;;;;;;;3.60;1.90;;;12.50;60.70;;;;;;4724972;29;114813;-83
2023/04/01 10:29:11;;;;;;;2.78;1.40;;;12.60;59.90;;;;;;4723269;29;117124;-83
2023/04/01 10:31:50;;;;;;;3.25;1.88;;;12.60;59.40;;;;;;4709341;29;114625;-83
2023/04/01 10:35:10;;;;;;;4.40;2.55;;;12.60;60.10;;;;;;4740607;29;114821;-83
2023/04/01 10:38:32;;;;;;;3.53;2.25;;;12.70;60.50;;;;;;4727835;29;114943;-84
2023/04/01 10:41:25;;;;;;;7.00;2.80;;;12.70;60.90;;;;;;4722821;29;116679;-84
2023/04/01 10:44:50;;;;;;;8.50;2.53;;;12.50;61.60;;;;;;4723422;29;116169;-83
2023/04/01 10:47:49;;;;;;;6.07;2.60;;;12.60;61.80;;;;;;4721480;29;114627;-83
2023/04/01 10:50:41;;;;;;;4.70;2.70;;;12.50;62.00;;;;;;4712034;29;114740;-84
2023/04/01 10:53:39;;;;;;;5.00;3.13;;;12.40;62.60;;;;;;4723427;29;115267;-84
2023/04/01 10:56:40;;;;;;;5.90;3.65;;;12.40;63.20;;;;;;4739005;29;117292;-84
2023/04/01 11:00:15;;;;;;;5.32;2.97;;;12.40;63.00;;;;;;4737361;29;114732;-84
2023/04/01 11:03:41;;;;;;;5.38;3.03;;;12.40;62.50;;;;;;4723746;29;114934;-84
2023/04/01 11:07:04;;;;;;;6.57;3.05;;;12.40;62.60;;;;;;4752689;29;115699;-83
2023/04/01 11:10:00;;;;;;;4.80;2.57;;;12.30;62.40;;;;;;4737202;29;115002;-83
2023/04/01 11:13:26;;;;;;;6.20;2.97;;;12.30;62.50;;;;;;4722284;29;114569;-83
2023/04/01 11:16:43;;;;;;;6.15;2.50;;;12.40;62.20;;;;;;4714662;29;114852;-85
2023/04/01 11:20:13;;;;;;;5.68;2.95;;;12.40;61.90;;;;;;4726804;29;115385;-84
2023/04/01 11:23:23;;;;;;;4.60;2.70;;;12.40;62.10;;;;;;4703598;29;115784;-84
2023/04/01 11:26:08;;;;;;;5.20;2.90;;;12.50;61.90;;;;;;4703148;29;114760;-84
2023/04/01 11:29:26;;;;;;;6.05;2.50;;;12.60;61.70;;;;;;4732105;29;115091;-84
2023/04/01 11:32:48;;;;;;;5.13;2.67;;;12.60;60.70;;;;;;4722650;29;115579;-83
2023/04/01 11:35:59;;;;;;;5.20;2.25;;;12.50;60.60;;;;;;4710111;29;114801;-84
2023/04/01 11:38:52;;;;;;;4.05;2.25;;;12.50;60.60;;;;;;4739204;29;117138;-83
2023/04/01 11:42:01;;;;;;;5.43;2.40;;;12.50;61.20;;;;;;4709201;29;114851;-84
2023/04/01 11:45:07;;;;;;;4.97;2.33;;;12.50;60.80;;;;;;4702079;29;115328;-84
2023/04/01 11:48:25;;;;;;;5.53;2.78;;;12.50;60.70;;;;;;4704048;29;114732;-84
2023/04/01 11:51:15;;;;;;;3.97;2.15;;;12.50;60.40;;;;;;4717885;29;114669;-84
2023/04/01 11:54:25;;;;;;;5.72;2.75;;;12.40;60.20;;;;;;4717943;29;114626;-84
2023/04/01 11:57:21;;;;;;;6.63;4.35;;;12.40;60.10;;;;;;4698093;29;115755;-83
2023/04/01 12:00:23;;;;;;;3.95;2.00;;;12.30;60.60;;;;;;4702358;29;114623;-85
2023/04/01 12:03:19;;;;;;;6.50;2.42;;;12.40;60.30;;;;;;4694403;29;114503;-84
2023/04/01 12:06:16;;;;;;;3.83;2.22;;;12.40;60.10;;;;;;4704464;29;114593;-84
2023/04/01 12:08:47;;;;;;;4.78;2.22;;;12.50;60.10;;;;;;4688434;29;118601;-83
2023/04/01 12:11:47;;;;;;;5.50;2.20;;;12.40;60.20;;;;;;4702418;29;114782;-85
2023/04/01 12:14:43;;;;;;;4.65;2.70;;;12.50;59.60;;;;;;4705338;29;114435;-85
2023/04/01 12:17:51;;;;;;;5.55;2.10;;;12.50;59.60;;;;;;4707144;29;115099;-84
2023/04/01 12:20:57;;;;;;;4.20;2.25;;;12.40;59.70;;;;;;4719554;29;116283;-84
2023/04/01 12:24:14;;;;;;;3.95;1.98;;;12.50;60.10;;;;;;4704318;29;114943;-84
2023/04/01 12:26:56;;;;;;;2.90;1.23;;;12.40;60.60;;;;;;4691644;29;114545;-85
2023/04/01 12:29:43;;;;;;;2.63;1.45;;;12.20;60.70;;;;;;4721726;29;114747;-85
2023/04/01 12:33:11;;;;;;;3.63;1.80;;;12.30;60.60;;;;;;4706356;29;115326;-86
2023/04/01 12:36:14;;;;;;;3.92;1.70;;;12.30;60.50;;;;;;4701356;29;117778;-85
2023/04/01 12:39:13;;;;;;;4.68;1.80;;;12.20;60.60;;;;;;4680724;29;117716;-84
2023/04/01 12:41:51;;;;;;;3.95;2.30;;;12.20;61.10;;;;;;4719384;29;115370;-86
2023/04/01 12:45:04;;;;;;;4.18;2.22;;;12.20;61.00;;;;;;4687780;29;115550;-86
2023/04/01 12:48:26;;;;;;;6.80;2.92;;;12.20;60.80;;;;;;4719395;29;116307;-87
2023/04/01 12:51:41;;;;;;;5.07;2.55;;;12.10;61.20;;;;;;4687570;29;114642;-85
2023/04/01 12:54:57;;;;;;;4.40;2.30;;;12.10;61.30;;;;;;4692565;29;114674;-85
2023/04/01 12:57:58;;;;;;;4.03;1.73;;;12.10;61.00;;;;;;4703699;29;116950;-86
2023/04/01 13:01:07;;;;;;;3.78;2.33;;;12.20;60.70;;;;;;4704527;29;118206;-85
2023/04/01 13:04:22;;;;;;;5.00;2.15;;;12.20;61.00;;;;;;4704781;29;114787;-85
2023/04/01 13:07:01;;;;;;;4.78;2.22;;;12.20;61.00;;;;;;4691908;29;114603;-85
2023/04/01 13:10:06;;;;;;;3.72;2.15;;;12.20;60.80;;;;;;4704710;29;115497;-84
2023/04/01 13:13:13;;;;;;;3.90;1.73;;;12.30;60.60;;;;;;4703929;29;117720;-87
2023/04/01 13:16:32;;;;;;;2.80;1.50;;;12.40;59.60;;;;;;4692751;29;114675;-87
2023/04/01 13:23:15;;;;;;;4.03;1.83;;;12.30;59.00;;;;;;4686295;30;115483;-87
2023/04/01 13:25:56;;;;;;;5.50;2.17;;;12.30;58.80;;;;;;4665883;30;114789;-85
2023/04/01 13:29:07;;;;;;;4.25;1.60;;;12.40;58.70;;;;;;4677974;30;115681;-86
2023/04/01 13:32:12;;;;;;;4.95;1.83;;;12.50;58.40;;;;;;4656626;30;114704;-87
2023/04/01 13:34:54;;;;;;;3.55;1.60;;;12.60;58.40;;;;;;4673807;30;118204;-85
2023/04/01 13:38:03;;;;;;;4.15;1.88;;;12.50;58.00;;;;;;4672701;30;117618;-86
2023/04/01 13:40:58;;;;;;;3.63;1.90;;;12.60;57.40;;;;;;4651092;30;114732;-84
2023/04/01 13:43:45;;;;;;;3.15;1.60;;;12.60;57.30;;;;;;4623543;30;114842;-85
2023/04/01 13:46:36;;;;;;;4.65;1.70;;;12.70;57.10;;;;;;4635868;30;117383;-86
2023/04/01 13:49:31;;;;;;;5.40;1.90;;;12.70;56.60;;;;;;4650820;30;115445;-85
2023/04/01 13:52:37;;;;;;;3.58;1.85;;;12.80;56.70;;;;;;4650620;30;115405;-84
2023/04/01 13:55:44;;;;;;;3.72;1.80;;;12.80;56.60;;;;;;4650264;30;114981;-85
2023/04/01 13:58:46;;;;;;;3.85;1.90;;;12.90;56.50;;;;;;4650647;30;115484;-85
2023/04/01 14:01:36;;;;;;;3.50;1.83;;;12.80;56.50;;;;;;4672939;29;116732;-87
2023/04/01 14:04:08;;;;;;;3.25;1.83;;;12.80;56.40;;;;;;4699117;29;116681;-85
2023/04/01 14:07:29;;;;;;;4.03;1.75;;;12.90;56.40;;;;;;4692720;29;115007;-85
2023/04/01 14:10:39;;;;;;;3.88;1.65;;;13.00;56.30;;;;;;4684183;29;119611;-85
2023/04/01 14:13:34;;;;;;;5.22;2.17;;;12.90;55.90;;;;;;4666481;29;116705;-84
2023/04/01 14:16:35;;;;;;;5.70;2.90;;;13.10;56.00;;;;;;4686666;29;114818;-85
2023/04/01 14:20:00;;;;;;;3.63;2.00;;;13.20;55.80;;;;;;4702992;29;115025;-83
2023/04/01 14:23:02;;;;;;;4.90;2.05;;;13.40;55.50;;;;;;4692727;29;119542;-84